首页
METAR-TAF:

METAR-TAF

机场 :

奧爾金, 古巴

纬度: 20-47N, 经度: 076-19W, 海拔: 106米

当前天气观测

该预报发布于55分钟前的23:13 UTC
风速15节,风向东北,在北转东北之间变化
温度 24°C
湿度 89%
气压 1013 hPa
能見度: 6000
少量云层高于2000英尺, 积雨云.
散云层高于2400英尺
多云层高于9000英尺
雷暴, 小雨

METAR: MUHG 202313Z 05015KT 020V080 6000 -TSRA FEW020CB SCT024 BKN090 24/22 Q1013 RMK CB OVER AD

时间: 20:08 (00:08 UTC)

预报

该预报发布于1小时和8分钟前的23:00 UTC
预报有效从21日的 00点(UTC)到 21日的 24点(UTC)
风速3节,风向多变
能見度: 9000
散云层高于2000英尺
短暂存在
从 21日的 00点(UTC)到 21日的 02点(UTC)
风速10节,风向多变
能見度: 5000
少量云层高于1800英尺, 积雨云.
多云层高于2000英尺
阵雨
短暂存在
从 21日的 20点(UTC)到 21日的 24点(UTC)
风速10节,风向多变
能見度: 5000
少量云层高于1800英尺, 积雨云.
多云层高于2000英尺
雷暴, 雨,

TAF: MUHG 202300Z 2100/2124 VRB03KT 9000 SCT020 TEMPO 2100/2102 VRB10KT 5000 SHRA FEW018CB BKN020 TEMPO 2120/2124 VRB10KT 5000 TSRA FEW018CB BKN020

超过4000个机场的气象观测和天气预报(METAR&TAF报告)。

可查询的气象台以黄色和红色小点在地图上表示。

将鼠标移到小点上方,可查看气象台名称。

然后点击查看天气观测和预报。

如需切换地图:点击带黑十字的绿色按钮放大地图;点击带横线的绿色按钮缩小地图;或者点击绿色箭头查看邻近地区的地图。


METAR-TAF: